首页
METAR-TAF:

METAR-TAF

机场 :

克赖斯特彻奇国际机场

基督城, 新西兰

纬度: 43-29S, 经度: 172-33E, 海拔: 38米

当前天气观测

该预报发布于21分钟前的15:00 UTC
风速4节,风向西转西南
温度 6°C
湿度 100%
气压 1009 hPa
能見度: 5000
轻雾,

METAR: NZCH 171500Z AUTO 24004KT 5000 BR OVC004/// 06/06 Q1009

时间: 03:21 (15:21 UTC)

预报

该预报发布于1小时和15分钟前的14:06 UTC
预报有效从17日的 15点(UTC)到 18日的 18点(UTC)
风速5节,风向西南
能見度: 4000
多云层高于400英尺
轻雾
短暂存在
从 17日的 15点(UTC)到 17日的 22点(UTC)
能見度: 0500
多云层高于100英尺
成为
从 17日的 22点(UTC)到 18日的 00点(UTC)
能见度10公里或以上
多云层高于800英尺
成为
从 18日的 00点(UTC)到 18日的 02点(UTC)
多云层高于1400英尺
成为
从 18日的 04点(UTC)到 18日的 06点(UTC)
风速10节,风向东转东北
多云层高于800英尺
几率 30%
从 18日的 06点(UTC)到 18日的 18点(UTC)
能見度: 0500
雾,

TAF: NZCH 171406Z 1715/1818 23005KT 4000 BR BKN004 TEMPO 1715/1722 0500 FG BKN001 BECMG 1722/1800 9999 NSW BKN008 BECMG 1800/1802 BKN014 BECMG 1804/1806 06010KT BKN008 PROB30 1806/1818 0500 FG

超过4000个机场的气象观测和天气预报(METAR&TAF报告)。

可查询的气象台以黄色和红色小点在地图上表示。

将鼠标移到小点上方,可查看气象台名称。

然后点击查看天气观测和预报。

如需切换地图:点击带黑十字的绿色按钮放大地图;点击带横线的绿色按钮缩小地图;或者点击绿色箭头查看邻近地区的地图。


METAR-TAF: